Time;durP1;ratioP1;P1;durP2;ratioP2;P2;SDS_P1;SDS_P2;PMS_P1;PMS_P2;Temp;Humidity;BMP_temperature;BMP_pressure;BME280_temperature;BME280_humidity;BME280_pressure;Samples;Min_cycle;Max_cycle;Signal;HPM_P1;HPM_P2
2021/08/30 00:01:54;;;;;;;18.38;9.65;;;17.30;94.20;;;;;;6188135;23;20025;-85
2021/08/30 00:04:19;;;;;;;18.02;10.10;;;17.30;94.20;;;;;;6188544;23;20055;-84
2021/08/30 00:06:45;;;;;;;17.75;9.80;;;17.30;94.30;;;;;;6187286;23;20098;-84
2021/08/30 00:09:11;;;;;;;22.27;10.23;;;17.30;94.20;;;;;;6188624;23;20020;-84
2021/08/30 00:11:37;;;;;;;14.88;9.13;;;17.30;94.30;;;;;;6189140;23;20095;-84
2021/08/30 00:14:04;;;;;;;17.40;10.00;;;17.30;94.40;;;;;;6188064;23;20060;-84
2021/08/30 00:16:30;;;;;;;15.25;9.30;;;17.30;94.30;;;;;;6188975;23;20020;-84
2021/08/30 00:18:57;;;;;;;16.70;10.15;;;17.30;94.30;;;;;;6188243;23;20043;-83
2021/08/30 00:21:23;;;;;;;17.77;10.48;;;17.30;94.40;;;;;;6216102;23;20013;-84
2021/08/30 00:23:48;;;;;;;18.80;10.25;;;17.30;94.50;;;;;;6189059;23;20330;-84
2021/08/30 00:26:14;;;;;;;16.77;10.20;;;17.30;94.50;;;;;;6187801;23;20020;-84
2021/08/30 00:28:40;;;;;;;15.18;9.43;;;17.30;94.50;;;;;;6187735;23;20654;-85
2021/08/30 00:31:06;;;;;;;13.52;9.27;;;17.30;94.40;;;;;;6215008;23;20044;-84
2021/08/30 00:33:32;;;;;;;23.73;11.48;;;17.30;94.30;;;;;;6213478;23;20013;-83
2021/08/30 00:35:58;;;;;;;19.85;10.07;;;17.30;94.50;;;;;;6188583;23;20016;-83
2021/08/30 00:38:23;;;;;;;16.23;9.75;;;17.30;94.50;;;;;;6189311;23;20012;-84
2021/08/30 00:40:49;;;;;;;18.33;10.00;;;17.30;94.50;;;;;;6187894;23;20013;-83
2021/08/30 00:43:14;;;;;;;18.30;9.98;;;17.30;94.50;;;;;;6189112;23;20016;-83
2021/08/30 00:45:40;;;;;;;20.58;10.77;;;17.30;94.60;;;;;;6188141;23;20051;-84
2021/08/30 00:48:06;;;;;;;20.00;11.35;;;17.30;94.60;;;;;;6215044;23;20090;-84
2021/08/30 00:50:32;;;;;;;18.17;10.88;;;17.30;94.80;;;;;;6188657;23;20023;-84
2021/08/30 00:52:57;;;;;;;17.27;10.60;;;17.30;94.80;;;;;;6216022;23;20056;-85
2021/08/30 00:55:23;;;;;;;18.48;10.57;;;17.30;94.70;;;;;;6188489;23;20017;-83
2021/08/30 00:57:50;;;;;;;16.85;10.18;;;17.30;94.70;;;;;;6215704;23;20016;-84
2021/08/30 01:00:16;;;;;;;21.52;11.55;;;17.30;94.70;;;;;;6215726;23;20009;-84
2021/08/30 01:02:42;;;;;;;21.00;11.00;;;17.30;94.70;;;;;;6187781;23;20086;-84
2021/08/30 01:05:11;;;;;;;19.50;11.95;;;17.30;94.80;;;;;;6188047;23;20019;-84
2021/08/30 01:08:06;;;;;;;20.85;11.18;;;17.30;94.90;;;;;;6188705;23;20017;-84
2021/08/30 01:10:47;;;;;;;19.88;11.70;;;17.30;95.00;;;;;;6197864;23;20024;-84
2021/08/30 01:13:23;;;;;;;18.25;11.10;;;17.30;95.00;;;;;;6215308;23;20459;-84
2021/08/30 01:15:48;;;;;;;20.30;11.93;;;17.30;95.00;;;;;;6215997;23;20369;-83
2021/08/30 01:18:19;;;;;;;21.42;11.75;;;17.30;95.10;;;;;;6190288;23;20021;-83
2021/08/30 01:21:16;;;;;;;23.98;11.73;;;17.30;95.10;;;;;;6190594;23;20008;-85
2021/08/30 01:23:45;;;;;;;19.33;11.85;;;17.30;95.00;;;;;;6216845;23;20012;-84
2021/08/30 01:26:14;;;;;;;18.67;11.70;;;17.30;95.20;;;;;;6217735;23;20020;-84
2021/08/30 01:28:46;;;;;;;24.27;11.77;;;17.30;95.20;;;;;;6190800;23;20017;-83
2021/08/30 01:31:27;;;;;;;20.52;11.75;;;17.30;95.20;;;;;;6190178;23;20021;-84
2021/08/30 01:33:52;;;;;;;22.80;12.20;;;17.30;95.10;;;;;;6190446;23;20480;-84
2021/08/30 01:36:20;;;;;;;25.95;12.77;;;17.30;95.10;;;;;;6189734;23;20020;-83
2021/08/30 01:38:47;;;;;;;26.55;12.65;;;17.30;95.20;;;;;;6190448;23;20020;-83
2021/08/30 01:41:16;;;;;;;21.05;11.65;;;17.30;95.30;;;;;;6217657;23;20016;-84
2021/08/30 01:43:46;;;;;;;27.83;13.35;;;17.30;95.30;;;;;;6189582;23;20017;-83
2021/08/30 01:46:13;;;;;;;27.92;14.05;;;17.30;95.40;;;;;;6189901;23;20063;-84
2021/08/30 01:48:47;;;;;;;26.02;12.52;;;17.30;95.50;;;;;;6216859;23;20051;-84
2021/08/30 01:51:14;;;;;;;29.17;13.20;;;17.40;95.40;;;;;;6189790;23;20017;-84
2021/08/30 01:53:40;;;;;;;28.27;13.43;;;17.30;95.40;;;;;;6189908;23;20337;-84
2021/08/30 01:56:06;;;;;;;25.42;12.93;;;17.40;95.60;;;;;;6190541;23;20475;-84
2021/08/30 02:00:59;;;;;;;33.17;13.02;;;17.40;95.50;;;;;;6190384;23;20100;-84
2021/08/30 02:03:25;;;;;;;19.17;11.85;;;17.40;95.50;;;;;;6217145;23;20071;-85
2021/08/30 02:05:58;;;;;;;23.02;12.60;;;17.40;95.30;;;;;;6189359;23;20499;-84
2021/08/30 02:08:25;;;;;;;24.52;12.55;;;17.40;95.30;;;;;;6190598;23;20066;-83
2021/08/30 02:10:53;;;;;;;25.60;13.07;;;17.40;95.40;;;;;;6190469;23;20322;-85
2021/08/30 02:13:22;;;;;;;26.10;14.02;;;17.40;95.40;;;;;;6189673;23;20401;-84
2021/08/30 02:15:48;;;;;;;21.75;11.52;;;17.40;95.60;;;;;;6216568;23;20016;-84
2021/08/30 02:18:17;;;;;;;25.48;12.45;;;17.40;95.40;;;;;;6216507;23;20031;-82
2021/08/30 02:20:56;;;;;;;24.15;12.52;;;17.40;95.40;;;;;;6188972;23;20099;-84
2021/08/30 02:23:28;;;;;;;19.60;11.48;;;17.40;95.40;;;;;;6190162;23;20031;-82
2021/08/30 02:25:58;;;;;;;17.05;11.32;;;17.40;95.30;;;;;;6188304;23;20104;-82
2021/08/30 02:28:24;;;;;;;28.23;12.98;;;17.40;95.20;;;;;;6188895;23;20059;-83
2021/08/30 02:30:51;;;;;;;29.35;14.27;;;17.40;95.30;;;;;;6188739;23;20095;-82
2021/08/30 02:33:17;;;;;;;23.52;13.18;;;17.40;95.50;;;;;;6188772;23;20024;-82
2021/08/30 02:35:44;;;;;;;28.83;12.98;;;17.40;95.60;;;;;;6189835;23;20025;-82
2021/08/30 02:38:14;;;;;;;20.95;12.30;;;17.40;95.60;;;;;;6190083;23;20016;-82
2021/08/30 02:40:41;;;;;;;26.63;13.48;;;17.40;95.40;;;;;;6189169;23;20017;-83
2021/08/30 02:43:07;;;;;;;22.70;11.95;;;17.40;95.50;;;;;;6190406;23;20024;-82
2021/08/30 02:45:35;;;;;;;26.77;13.32;;;17.40;95.40;;;;;;6190036;23;20017;-82
2021/08/30 02:48:03;;;;;;;30.67;13.23;;;17.40;95.40;;;;;;6189298;23;20057;-81
2021/08/30 02:50:31;;;;;;;23.52;12.55;;;17.40;95.50;;;;;;6190105;23;20020;-83
2021/08/30 02:52:59;;;;;;;32.58;14.30;;;17.40;95.50;;;;;;6190168;23;20100;-83
2021/08/30 02:55:25;;;;;;;26.95;13.68;;;17.30;95.60;;;;;;6215587;23;20103;-83
2021/08/30 02:57:50;;;;;;;34.95;15.07;;;17.40;95.70;;;;;;6189841;23;20512;-82
2021/08/30 03:00:17;;;;;;;28.67;13.70;;;17.40;95.90;;;;;;6216401;23;20342;-82
2021/08/30 03:02:45;;;;;;;22.20;12.35;;;17.40;96.00;;;;;;6214863;23;20055;-82
2021/08/30 03:05:12;;;;;;;23.02;12.40;;;17.30;95.50;;;;;;6190126;23;20409;-82
2021/08/30 03:07:39;;;;;;;23.05;11.57;;;17.30;95.30;;;;;;6215209;23;20106;-83
2021/08/30 03:10:06;;;;;;;27.77;13.88;;;17.30;95.20;;;;;;6189927;23;20311;-83
2021/08/30 03:12:53;;;;;;;30.17;14.00;;;17.30;95.50;;;;;;6189895;23;20025;-83
2021/08/30 03:15:23;;;;;;;25.52;13.32;;;17.30;95.50;;;;;;6215482;23;20102;-83
2021/08/30 03:17:51;;;;;;;34.00;15.10;;;17.30;95.70;;;;;;6189585;23;20425;-83
2021/08/30 03:20:20;;;;;;;26.00;12.63;;;17.30;95.80;;;;;;6215460;23;20028;-83
2021/08/30 03:22:49;;;;;;;32.38;14.68;;;17.30;95.60;;;;;;6188269;23;20012;-83
2021/08/30 03:25:16;;;;;;;29.67;14.25;;;17.30;95.80;;;;;;6189854;23;20028;-83
2021/08/30 03:27:47;;;;;;;24.23;12.80;;;17.40;95.80;;;;;;6189299;23;20088;-83
2021/08/30 03:30:15;;;;;;;29.23;13.88;;;17.30;95.30;;;;;;6188727;23;20028;-83
2021/08/30 03:32:43;;;;;;;29.60;13.73;;;17.30;95.70;;;;;;6215832;23;20028;-84
2021/08/30 03:35:10;;;;;;;25.70;13.77;;;17.30;95.70;;;;;;6216581;23;20044;-82
2021/08/30 03:37:37;;;;;;;34.72;14.00;;;17.30;95.90;;;;;;6214902;23;20100;-82
2021/08/30 03:40:04;;;;;;;37.17;14.55;;;17.30;95.90;;;;;;6189955;23;20340;-82
2021/08/30 03:42:30;;;;;;;27.25;14.13;;;17.30;96.00;;;;;;6189808;23;20020;-83
2021/08/30 03:44:56;;;;;;;29.77;14.73;;;17.30;95.90;;;;;;6188652;23;20063;-83
2021/08/30 03:47:22;;;;;;;31.15;15.05;;;17.30;96.20;;;;;;6216732;23;20040;-83
2021/08/30 03:49:49;;;;;;;25.90;13.38;;;17.30;96.20;;;;;;6188382;23;20012;-82
2021/08/30 03:52:15;;;;;;;23.75;13.15;;;17.30;96.00;;;;;;6189411;23;20025;-83
2021/08/30 03:54:41;;;;;;;22.83;14.55;;;17.30;95.80;;;;;;6189411;23;20326;-82
2021/08/30 03:57:07;;;;;;;29.25;15.68;;;17.30;96.00;;;;;;6215643;23;20028;-83
2021/08/30 03:59:35;;;;;;;27.20;13.80;;;17.30;96.30;;;;;;6189363;23;20013;-83
2021/08/30 04:02:03;;;;;;;23.70;13.00;;;17.30;96.10;;;;;;6189640;23;20048;-83
2021/08/30 04:04:30;;;;;;;22.98;12.77;;;17.30;95.80;;;;;;6215314;23;20020;-83
2021/08/30 04:06:57;;;;;;;27.88;13.32;;;17.20;95.60;;;;;;6189579;23;20016;-82
2021/08/30 04:09:24;;;;;;;28.92;13.68;;;17.20;95.80;;;;;;6215889;23;20027;-82
2021/08/30 04:11:50;;;;;;;29.85;14.05;;;17.20;95.80;;;;;;6215067;23;20047;-82
2021/08/30 04:14:18;;;;;;;24.35;13.35;;;17.20;95.80;;;;;;6216125;23;20016;-83
2021/08/30 04:16:46;;;;;;;30.23;14.65;;;17.20;95.60;;;;;;6188871;23;20052;-82
2021/08/30 04:19:11;;;;;;;33.45;15.68;;;17.20;95.80;;;;;;6188601;23;20396;-82
2021/08/30 04:21:37;;;;;;;31.38;15.65;;;17.20;96.10;;;;;;6215917;23;20013;-82
2021/08/30 04:24:03;;;;;;;32.17;15.02;;;17.20;96.10;;;;;;6215814;23;20104;-83
2021/08/30 04:26:28;;;;;;;32.92;16.65;;;17.20;96.10;;;;;;6188726;23;20012;-82
2021/08/30 04:28:54;;;;;;;26.92;14.30;;;17.20;96.10;;;;;;6188478;23;20342;-83
2021/08/30 04:31:19;;;;;;;33.30;16.30;;;17.20;95.80;;;;;;6189197;23;20119;-82
2021/08/30 04:33:45;;;;;;;32.97;16.23;;;17.20;95.80;;;;;;6188067;23;20021;-83
2021/08/30 04:36:11;;;;;;;27.25;13.55;;;17.20;96.00;;;;;;6189221;23;20100;-82
2021/08/30 04:38:36;;;;;;;36.38;17.55;;;17.20;96.00;;;;;;6188801;23;20021;-83
2021/08/30 04:41:02;;;;;;;29.08;15.15;;;17.20;96.20;;;;;;6187889;23;20842;-82
2021/08/30 04:43:28;;;;;;;29.75;15.38;;;17.20;96.20;;;;;;6188887;23;20337;-83
2021/08/30 04:45:53;;;;;;;32.55;16.08;;;17.20;96.20;;;;;;6188647;23;20020;-83
2021/08/30 04:48:19;;;;;;;39.10;17.15;;;17.20;96.30;;;;;;6187776;23;20437;-83
2021/08/30 04:50:45;;;;;;;34.50;17.13;;;17.20;96.50;;;;;;6188955;23;20021;-83
2021/08/30 04:53:10;;;;;;;32.35;16.98;;;17.20;96.50;;;;;;6215112;23;20421;-82
2021/08/30 04:55:36;;;;;;;33.90;16.10;;;17.20;96.50;;;;;;6189002;23;20021;-83
2021/08/30 04:58:04;;;;;;;28.70;14.88;;;17.20;96.60;;;;;;6188968;23;20020;-82
2021/08/30 05:00:29;;;;;;;33.13;15.45;;;17.30;96.50;;;;;;6187271;23;20017;-82
2021/08/30 05:02:55;;;;;;;32.65;15.70;;;17.30;96.60;;;;;;6188503;23;20023;-81
2021/08/30 05:05:21;;;;;;;32.67;15.00;;;17.20;96.70;;;;;;6188958;23;20087;-81
2021/08/30 05:07:46;;;;;;;36.25;15.98;;;17.20;96.60;;;;;;6187576;23;20115;-82
2021/08/30 05:10:13;;;;;;;31.20;16.45;;;17.30;96.80;;;;;;6214805;23;20024;-82
2021/08/30 05:12:39;;;;;;;35.15;16.75;;;17.30;96.90;;;;;;6214042;23;20023;-82
2021/08/30 05:15:05;;;;;;;35.55;15.57;;;17.30;97.00;;;;;;6186874;23;20016;-82
2021/08/30 05:17:31;;;;;;;28.98;15.23;;;17.30;96.80;;;;;;6188646;23;20013;-83
2021/08/30 05:19:57;;;;;;;27.58;13.85;;;17.30;96.80;;;;;;6216117;23;20016;-82
2021/08/30 05:22:22;;;;;;;30.83;15.48;;;17.30;96.50;;;;;;6188576;23;20040;-83
2021/08/30 05:24:48;;;;;;;31.08;15.38;;;17.30;96.70;;;;;;6188441;23;20021;-81
2021/08/30 05:27:14;;;;;;;38.72;15.80;;;17.30;96.70;;;;;;6188701;23;20020;-82
2021/08/30 05:29:39;;;;;;;27.92;14.52;;;17.30;97.00;;;;;;6187161;23;20017;-83
2021/08/30 05:32:06;;;;;;;26.25;12.80;;;17.30;96.90;;;;;;6188873;23;20022;-81
2021/08/30 05:34:32;;;;;;;26.08;14.32;;;17.30;96.60;;;;;;6179958;23;20060;-81
2021/08/30 05:36:57;;;;;;;26.50;14.25;;;17.30;96.60;;;;;;6188098;23;20017;-82
2021/08/30 05:39:23;;;;;;;31.13;15.18;;;17.30;96.50;;;;;;6188976;23;20035;-83
2021/08/30 05:41:48;;;;;;;25.20;13.45;;;17.30;96.70;;;;;;6188741;23;20017;-92
2021/08/30 05:44:14;;;;;;;24.00;13.82;;;17.30;96.60;;;;;;6189596;23;20437;-93
2021/08/30 05:46:40;;;;;;;31.33;13.82;;;17.30;96.60;;;;;;6190214;23;20012;-89
2021/08/30 05:49:05;;;;;;;27.02;14.57;;;17.40;96.50;;;;;;6190024;23;20063;-90
2021/08/30 05:51:31;;;;;;;34.22;15.20;;;17.40;96.60;;;;;;6189209;23;20606;-81
2021/08/30 05:53:56;;;;;;;29.65;14.95;;;17.30;96.70;;;;;;6188060;23;20353;-83
2021/08/30 05:56:23;;;;;;;31.00;13.73;;;17.40;96.80;;;;;;6214834;23;20436;-82
2021/08/30 05:58:49;;;;;;;25.98;14.13;;;17.40;96.70;;;;;;6188584;23;20021;-80
2021/08/30 06:01:14;;;;;;;29.60;15.07;;;17.40;96.70;;;;;;6190557;23;20471;-80
2021/08/30 06:03:40;;;;;;;31.65;14.32;;;17.40;96.80;;;;;;6215713;23;20016;-80
2021/08/30 06:06:06;;;;;;;22.48;13.65;;;17.40;96.80;;;;;;6190542;23;20446;-80
2021/08/30 06:08:31;;;;;;;26.83;14.02;;;17.50;96.80;;;;;;6187952;23;20017;-80
2021/08/30 06:10:57;;;;;;;21.88;12.20;;;17.40;96.80;;;;;;6189631;23;20067;-80
2021/08/30 06:13:24;;;;;;;23.95;13.07;;;17.50;96.80;;;;;;6190002;23;20016;-80
2021/08/30 06:15:50;;;;;;;27.40;13.05;;;17.50;96.80;;;;;;6189655;23;20051;-81
2021/08/30 06:18:16;;;;;;;27.17;14.38;;;17.50;96.70;;;;;;6189550;23;20021;-80
2021/08/30 06:20:42;;;;;;;27.92;13.50;;;17.50;96.80;;;;;;6190015;23;20020;-81
2021/08/30 06:23:07;;;;;;;23.70;13.05;;;17.50;96.90;;;;;;6190293;23;20021;-80
2021/08/30 06:25:33;;;;;;;28.10;13.60;;;17.50;96.80;;;;;;6215245;23;20016;-80
2021/08/30 06:27:58;;;;;;;21.40;12.80;;;17.50;96.80;;;;;;6190113;23;20091;-81
2021/08/30 06:30:24;;;;;;;25.40;13.65;;;17.50;96.60;;;;;;6190411;23;20020;-80
2021/08/30 06:32:50;;;;;;;21.33;12.80;;;17.50;96.70;;;;;;6215600;23;20307;-80
2021/08/30 06:35:16;;;;;;;21.73;12.93;;;17.50;96.70;;;;;;6189918;23;20020;-80
2021/08/30 06:37:42;;;;;;;24.73;13.75;;;17.60;96.70;;;;;;6190478;23;20098;-80
2021/08/30 06:40:09;;;;;;;22.40;12.27;;;17.50;96.60;;;;;;6215418;23;20021;-81
2021/08/30 06:42:35;;;;;;;25.13;13.50;;;17.60;96.50;;;;;;6215304;23;20051;-80
2021/08/30 06:45:03;;;;;;;20.45;13.00;;;17.60;96.60;;;;;;6189288;23;20017;-81
2021/08/30 06:47:29;;;;;;;18.67;12.95;;;17.60;96.60;;;;;;6188309;23;20515;-81
2021/08/30 06:49:54;;;;;;;24.80;13.15;;;17.60;96.50;;;;;;6216210;23;20024;-81
2021/08/30 06:52:20;;;;;;;20.90;12.13;;;17.60;96.50;;;;;;6189825;23;20070;-81
2021/08/30 06:54:46;;;;;;;25.65;13.57;;;17.60;96.50;;;;;;6188235;23;20349;-80
2021/08/30 06:57:11;;;;;;;24.55;12.73;;;17.70;96.60;;;;;;6189079;23;20023;-80
2021/08/30 06:59:37;;;;;;;23.10;13.52;;;17.70;96.50;;;;;;6189576;23;20020;-81
2021/08/30 07:02:03;;;;;;;25.67;13.65;;;17.70;96.50;;;;;;6215562;23;20104;-81
2021/08/30 07:04:28;;;;;;;25.05;13.52;;;17.70;96.50;;;;;;6189791;23;20024;-81
2021/08/30 07:06:54;;;;;;;18.15;12.30;;;17.70;96.60;;;;;;6188509;23;20055;-81
2021/08/30 07:09:19;;;;;;;24.45;12.98;;;17.70;96.30;;;;;;6216299;23;20071;-81
2021/08/30 07:11:48;;;;;;;20.20;12.40;;;17.70;96.40;;;;;;6188054;23;20430;-81
2021/08/30 07:14:20;;;;;;;23.20;12.60;;;17.80;96.40;;;;;;6187906;23;20090;-83
2021/08/30 07:16:45;;;;;;;21.75;12.65;;;17.80;96.40;;;;;;6183998;23;20021;-80
2021/08/30 07:19:11;;;;;;;19.27;12.05;;;17.80;96.40;;;;;;6188736;23;20023;-82
2021/08/30 07:21:37;;;;;;;22.90;12.40;;;17.80;96.70;;;;;;6215456;23;20023;-82
2021/08/30 07:24:03;;;;;;;21.92;11.82;;;17.90;96.30;;;;;;6216745;23;20009;-82
2021/08/30 07:26:28;;;;;;;21.73;12.80;;;17.90;96.30;;;;;;6189332;23;20031;-82
2021/08/30 07:28:54;;;;;;;22.67;12.35;;;18.00;96.30;;;;;;6188284;23;20445;-80
2021/08/30 07:31:20;;;;;;;17.33;12.05;;;18.00;96.30;;;;;;6189750;23;20027;-82
2021/08/30 07:33:48;;;;;;;22.58;12.40;;;18.00;96.20;;;;;;6215614;23;20341;-82
2021/08/30 07:36:15;;;;;;;25.58;12.35;;;18.10;96.10;;;;;;6188767;23;20012;-81
2021/08/30 07:38:41;;;;;;;18.75;11.63;;;18.10;96.10;;;;;;6189404;23;20091;-82
2021/08/30 07:41:07;;;;;;;16.75;10.77;;;18.10;96.00;;;;;;6189417;23;20100;-81
2021/08/30 07:43:33;;;;;;;18.58;11.68;;;18.20;95.80;;;;;;6215228;23;20394;-82
2021/08/30 07:46:01;;;;;;;17.00;11.05;;;18.20;95.70;;;;;;6189795;23;20036;-80
2021/08/30 07:48:27;;;;;;;19.17;11.10;;;18.30;95.60;;;;;;6189556;23;20012;-81
2021/08/30 07:50:53;;;;;;;18.67;11.45;;;18.30;95.60;;;;;;6214576;23;20330;-81
2021/08/30 07:53:18;;;;;;;21.08;10.63;;;18.30;95.50;;;;;;6188851;23;20017;-81
2021/08/30 07:55:44;;;;;;;18.10;11.02;;;18.30;95.50;;;;;;6189132;23;20012;-82
2021/08/30 07:58:10;;;;;;;19.08;10.27;;;18.30;95.40;;;;;;6188172;23;20040;-82
2021/08/30 08:00:36;;;;;;;16.58;10.85;;;18.40;95.30;;;;;;6189205;23;20048;-82
2021/08/30 08:03:01;;;;;;;17.80;10.15;;;18.40;95.30;;;;;;6214784;23;20028;-81
2021/08/30 08:05:27;;;;;;;17.45;10.52;;;18.40;95.00;;;;;;6189382;23;20022;-81
2021/08/30 08:07:52;;;;;;;19.20;10.35;;;18.50;95.10;;;;;;6189047;23;20012;-81
2021/08/30 08:10:18;;;;;;;18.52;10.00;;;18.50;94.90;;;;;;6188417;23;20027;-81
2021/08/30 08:12:43;;;;;;;16.15;9.77;;;18.50;94.80;;;;;;6188832;23;20029;-80
2021/08/30 08:15:10;;;;;;;18.52;9.48;;;18.60;94.70;;;;;;6189001;23;20017;-81
2021/08/30 08:17:36;;;;;;;14.40;9.52;;;18.60;94.60;;;;;;6187534;23;20507;-81
2021/08/30 08:20:04;;;;;;;15.50;9.23;;;18.60;94.50;;;;;;6216175;23;20020;-82
2021/08/30 08:22:30;;;;;;;17.73;8.95;;;18.70;94.40;;;;;;6189005;23;20429;-83
2021/08/30 08:24:58;;;;;;;16.75;9.07;;;18.70;94.30;;;;;;6187599;23;20031;-81
2021/08/30 08:27:24;;;;;;;13.73;8.20;;;18.80;94.10;;;;;;6189235;23;20016;-80
2021/08/30 08:29:50;;;;;;;10.95;7.93;;;18.80;94.00;;;;;;6188943;23;20028;-81
2021/08/30 08:32:16;;;;;;;16.92;8.70;;;18.90;93.80;;;;;;6188381;23;20034;-82
2021/08/30 08:34:41;;;;;;;12.00;7.80;;;18.90;93.60;;;;;;6188828;23;20091;-81
2021/08/30 08:37:08;;;;;;;12.73;8.10;;;18.90;93.30;;;;;;6215755;23;20020;-82
2021/08/30 08:39:35;;;;;;;11.07;7.65;;;18.90;93.10;;;;;;6187672;23;20018;-82
2021/08/30 08:42:01;;;;;;;13.07;7.93;;;19.00;93.20;;;;;;6188841;23;20013;-79
2021/08/30 08:44:27;;;;;;;13.27;7.63;;;19.00;93.30;;;;;;6189238;23;20024;-81
2021/08/30 08:46:52;;;;;;;13.60;7.50;;;19.10;93.20;;;;;;6214448;23;20012;-81
2021/08/30 08:49:21;;;;;;;11.98;7.90;;;19.10;92.90;;;;;;6188674;23;20023;-81
2021/08/30 08:51:47;;;;;;;10.45;7.20;;;19.20;92.70;;;;;;6215121;23;20044;-81
2021/08/30 08:54:13;;;;;;;14.13;7.68;;;19.30;92.50;;;;;;6214731;23;20326;-81
2021/08/30 08:56:39;;;;;;;10.88;6.95;;;19.30;92.40;;;;;;6188609;23;20016;-81
2021/08/30 08:59:05;;;;;;;11.45;7.25;;;19.40;92.30;;;;;;6188890;23;20052;-81
2021/08/30 09:01:32;;;;;;;11.60;7.35;;;19.40;92.10;;;;;;6187913;23;20091;-83
2021/08/30 09:03:57;;;;;;;10.20;7.03;;;19.50;92.20;;;;;;6188708;23;20021;-81
2021/08/30 09:06:39;;;;;;;14.07;6.68;;;19.50;92.20;;;;;;6214574;23;20068;-81
2021/08/30 09:09:07;;;;;;;9.70;7.00;;;19.50;92.10;;;;;;6188417;23;20092;-82
2021/08/30 09:11:36;;;;;;;10.23;6.65;;;19.60;92.30;;;;;;6215454;23;20016;-81
2021/08/30 09:14:10;;;;;;;11.35;6.28;;;19.60;92.10;;;;;;6214377;23;20062;-82
2021/08/30 09:16:36;;;;;;;10.82;6.25;;;19.70;91.80;;;;;;6188192;23;20023;-82
2021/08/30 09:19:07;;;;;;;8.60;6.03;;;19.70;91.50;;;;;;6188234;23;20115;-82
2021/08/30 09:21:34;;;;;;;8.57;5.38;;;19.70;91.30;;;;;;6187752;23;20036;-81
2021/08/30 09:24:14;;;;;;;8.82;5.90;;;19.80;90.80;;;;;;6188619;23;20048;-82
2021/08/30 09:26:51;;;;;;;8.98;5.97;;;19.70;90.40;;;;;;6188119;23;20017;-82
2021/08/30 09:29:22;;;;;;;9.60;6.13;;;19.80;90.80;;;;;;6187549;23;20092;-81
2021/08/30 09:31:57;;;;;;;10.10;5.82;;;19.80;90.90;;;;;;6188446;23;20055;-82
2021/08/30 09:34:27;;;;;;;8.25;5.43;;;19.80;91.00;;;;;;6215898;23;20024;-82
2021/08/30 09:36:53;;;;;;;10.18;5.50;;;19.80;90.70;;;;;;6190039;23;20016;-82
2021/08/30 09:39:19;;;;;;;7.18;5.30;;;19.90;90.50;;;;;;6190486;23;20023;-84
2021/08/30 09:41:44;;;;;;;6.78;5.40;;;19.90;91.20;;;;;;6188738;23;20021;-95
2021/08/30 10:02:14;;;;;;;8.68;4.80;;;20.10;88.80;;;;;;6220911;22;19915;-91
2021/08/30 10:05:31;;;;;;;9.32;4.40;;;20.20;89.80;;;;;;6178813;23;20062;-90
2021/08/30 10:08:16;;;;;;;6.50;4.20;;;20.20;89.40;;;;;;6192416;23;20020;-91
2021/08/30 10:11:50;;;;;;;7.45;4.97;;;20.30;88.00;;;;;;6191528;23;20012;-92
2021/08/30 10:14:33;;;;;;;9.70;4.32;;;20.40;87.40;;;;;;6108435;23;20105;-92
2021/08/30 10:17:02;;;;;;;5.65;3.97;;;20.40;86.80;;;;;;6191637;23;20016;-92
2021/08/30 10:20:00;;;;;;;7.78;4.45;;;20.40;86.70;;;;;;6192101;23;20052;-92
2021/08/30 10:22:28;;;;;;;6.38;3.63;;;20.40;85.70;;;;;;6154451;23;20047;-93
2021/08/30 10:24:57;;;;;;;9.45;4.18;;;20.40;85.50;;;;;;6191168;23;20013;-93
2021/08/30 10:27:55;;;;;;;9.25;4.43;;;20.50;85.20;;;;;;6190762;23;20023;-88
2021/08/30 10:31:06;;;;;;;7.50;4.53;;;20.50;85.30;;;;;;6191077;23;20020;-93
2021/08/30 10:33:47;;;;;;;7.30;4.55;;;20.50;86.40;;;;;;6193261;23;20024;-90
2021/08/30 10:36:15;;;;;;;9.88;4.07;;;20.60;86.50;;;;;;6192724;23;20016;-90
2021/08/30 10:45:58;;;;;;;8.10;4.50;;;20.70;83.60;;;;;;6090600;23;20413;-87
2021/08/30 10:48:34;;;;;;;6.63;4.45;;;20.80;84.70;;;;;;6068658;23;20018;-84
2021/08/30 10:51:10;;;;;;;9.55;4.30;;;20.80;85.40;;;;;;6084856;23;20024;-81
2021/08/30 10:53:36;;;;;;;8.20;4.53;;;20.80;85.60;;;;;;6184773;23;20143;-81
2021/08/30 10:56:07;;;;;;;6.93;4.25;;;20.90;86.10;;;;;;6212936;23;20449;-81
2021/08/30 10:58:33;;;;;;;8.15;4.40;;;20.90;85.80;;;;;;6216537;23;20008;-81
2021/08/30 11:01:12;;;;;;;12.18;4.95;;;20.90;86.30;;;;;;6189638;23;20407;-81
2021/08/30 11:03:39;;;;;;;14.60;5.43;;;21.00;85.90;;;;;;6188376;23;20091;-82
2021/08/30 11:06:12;;;;;;;10.27;4.93;;;21.10;85.40;;;;;;6214035;23;20021;-82
2021/08/30 11:08:40;;;;;;;10.13;5.10;;;21.10;84.30;;;;;;6189971;23;20023;-82
2021/08/30 11:11:26;;;;;;;10.25;5.28;;;21.10;84.30;;;;;;6190723;23;20024;-82
2021/08/30 11:14:02;;;;;;;9.32;4.72;;;21.10;84.40;;;;;;6189547;23;20016;-82
2021/08/30 11:16:28;;;;;;;10.70;5.00;;;21.20;83.70;;;;;;6190964;23;20088;-81
2021/08/30 11:19:06;;;;;;;7.10;4.80;;;21.20;85.60;;;;;;6216901;23;20021;-81
2021/08/30 11:21:37;;;;;;;9.80;5.05;;;21.30;85.40;;;;;;6189054;23;20016;-81
2021/08/30 11:24:04;;;;;;;6.70;4.32;;;21.30;85.90;;;;;;6216219;23;20315;-81
2021/08/30 11:26:30;;;;;;;10.23;4.85;;;21.30;84.60;;;;;;6190195;23;20040;-81
2021/08/30 11:29:04;;;;;;;7.57;4.65;;;21.40;84.60;;;;;;6188924;23;20013;-81
2021/08/30 11:31:32;;;;;;;7.57;4.35;;;21.40;84.30;;;;;;6216943;23;20140;-81
2021/08/30 11:33:58;;;;;;;8.50;4.65;;;21.40;83.90;;;;;;6191052;23;20021;-82
2021/08/30 11:36:24;;;;;;;8.95;4.63;;;21.50;82.70;;;;;;6190206;23;20043;-81
2021/08/30 11:38:54;;;;;;;7.85;4.72;;;21.40;82.20;;;;;;6216814;23;20028;-82
2021/08/30 11:41:20;;;;;;;8.05;4.32;;;21.50;82.80;;;;;;6216752;23;20119;-82
2021/08/30 11:44:01;;;;;;;7.53;4.90;;;21.50;81.90;;;;;;6190358;23;20017;-82
2021/08/30 11:46:27;;;;;;;8.30;4.43;;;21.50;83.50;;;;;;6190284;23;20021;-82
2021/08/30 11:48:57;;;;;;;8.48;4.90;;;21.50;83.70;;;;;;6190985;23;20020;-81
2021/08/30 11:51:26;;;;;;;7.70;4.60;;;21.50;83.90;;;;;;6190676;23;20066;-81
2021/08/30 11:53:53;;;;;;;8.55;4.80;;;21.60;85.20;;;;;;6190081;23;20134;-82
2021/08/30 11:56:21;;;;;;;7.38;4.50;;;21.60;85.70;;;;;;6214420;23;20024;-82
2021/08/30 11:58:47;;;;;;;8.27;4.57;;;21.60;84.70;;;;;;6187033;23;20016;-81
2021/08/30 12:01:17;;;;;;;8.20;4.60;;;21.70;85.10;;;;;;6188122;23;20017;-81
2021/08/30 12:03:44;;;;;;;7.25;4.40;;;21.70;84.40;;;;;;6180866;23;20096;-82
2021/08/30 12:06:19;;;;;;;5.97;4.43;;;21.80;83.90;;;;;;6182353;23;20068;-81
2021/08/30 12:08:55;;;;;;;7.38;4.50;;;21.80;84.20;;;;;;6182581;23;20067;-82
2021/08/30 12:11:20;;;;;;;8.27;4.82;;;21.90;84.50;;;;;;6183542;23;20020;-81
2021/08/30 12:16:25;;;;;;;7.55;4.50;;;21.90;84.10;;;;;;6183963;23;20028;-80
2021/08/30 12:18:53;;;;;;;9.15;4.72;;;21.90;83.70;;;;;;6184349;23;20353;-81
2021/08/30 12:21:34;;;;;;;7.90;5.00;;;22.00;84.60;;;;;;6184725;23;20013;-81
2021/08/30 12:23:59;;;;;;;7.78;4.28;;;22.00;84.60;;;;;;6184034;23;20028;-81
2021/08/30 12:26:25;;;;;;;8.25;4.72;;;22.10;84.90;;;;;;6184594;23;20024;-81
2021/08/30 12:28:56;;;;;;;7.32;4.93;;;22.10;84.20;;;;;;6181998;23;20021;-81
2021/08/30 12:31:32;;;;;;;8.38;4.82;;;22.10;84.40;;;;;;6183883;23;20092;-81
2021/08/30 12:34:12;;;;;;;11.02;4.80;;;22.10;83.20;;;;;;6184543;23;20021;-81
2021/08/30 12:36:38;;;;;;;6.75;4.70;;;22.20;82.80;;;;;;6184496;23;20067;-81
2021/08/30 12:39:05;;;;;;;6.70;4.10;;;22.20;84.90;;;;;;6185355;23;20025;-81
2021/08/30 12:41:33;;;;;;;7.05;4.63;;;22.20;84.10;;;;;;6184333;23;20013;-81
2021/08/30 12:43:58;;;;;;;7.43;5.13;;;22.20;83.50;;;;;;6184450;23;20016;-81
2021/08/30 12:46:26;;;;;;;9.60;5.10;;;22.20;84.50;;;;;;6183483;23;20548;-80
2021/08/30 12:48:52;;;;;;;9.63;4.82;;;22.20;85.10;;;;;;6184194;23;20028;-81
2021/08/30 12:51:18;;;;;;;7.85;4.80;;;22.20;83.40;;;;;;6184219;23;20388;-81
2021/08/30 12:53:44;;;;;;;7.38;5.00;;;22.20;83.20;;;;;;6183079;23;20059;-81
2021/08/30 12:56:10;;;;;;;7.57;4.88;;;22.20;83.50;;;;;;6184091;23;20047;-81
2021/08/30 12:58:36;;;;;;;7.70;4.80;;;22.20;82.30;;;;;;6184707;23;20020;-82
2021/08/30 13:01:02;;;;;;;8.27;4.88;;;22.20;83.60;;;;;;6184391;23;20027;-81
2021/08/30 13:03:28;;;;;;;7.95;4.50;;;22.30;83.70;;;;;;6184185;23;20013;-81
2021/08/30 13:05:54;;;;;;;8.65;4.93;;;22.30;85.40;;;;;;6183363;23;20047;-81
2021/08/30 13:08:20;;;;;;;7.68;4.68;;;22.30;83.00;;;;;;6183920;23;20020;-83
2021/08/30 13:10:48;;;;;;;6.45;4.28;;;22.30;84.00;;;;;;6183554;23;20021;-81